sensor_id;sensor_type;location;lat;lon;timestamp;P1;durP1;ratioP1;P2;durP2;ratioP2
2299;SDS011;1158;48.750;9.078;2023-08-12T00:00:19;10.07;;;8.07;;
2299;SDS011;1158;48.750;9.078;2023-08-12T00:02:46;11.50;;;7.23;;
2299;SDS011;1158;48.750;9.078;2023-08-12T00:05:13;7.77;;;6.60;;
2299;SDS011;1158;48.750;9.078;2023-08-12T00:07:40;10.53;;;7.10;;
2299;SDS011;1158;48.750;9.078;2023-08-12T00:10:07;11.93;;;7.60;;
2299;SDS011;1158;48.750;9.078;2023-08-12T00:12:37;9.57;;;7.67;;
2299;SDS011;1158;48.750;9.078;2023-08-12T00:15:04;9.63;;;7.07;;
2299;SDS011;1158;48.750;9.078;2023-08-12T00:17:33;10.30;;;6.90;;
2299;SDS011;1158;48.750;9.078;2023-08-12T00:20:01;11.40;;;7.60;;
2299;SDS011;1158;48.750;9.078;2023-08-12T00:22:30;9.03;;;7.33;;
2299;SDS011;1158;48.750;9.078;2023-08-12T00:24:57;9.67;;;8.20;;
2299;SDS011;1158;48.750;9.078;2023-08-12T00:27:23;9.43;;;8.00;;
2299;SDS011;1158;48.750;9.078;2023-08-12T00:29:52;9.80;;;7.40;;
2299;SDS011;1158;48.750;9.078;2023-08-12T00:32:18;8.07;;;7.10;;
2299;SDS011;1158;48.750;9.078;2023-08-12T00:34:45;9.00;;;7.53;;
2299;SDS011;1158;48.750;9.078;2023-08-12T00:37:12;8.90;;;7.33;;
2299;SDS011;1158;48.750;9.078;2023-08-12T00:39:38;12.50;;;7.97;;
2299;SDS011;1158;48.750;9.078;2023-08-12T00:42:05;16.70;;;7.30;;
2299;SDS011;1158;48.750;9.078;2023-08-12T00:44:32;9.43;;;6.97;;
2299;SDS011;1158;48.750;9.078;2023-08-12T00:47:00;8.40;;;7.10;;
2299;SDS011;1158;48.750;9.078;2023-08-12T00:49:27;9.10;;;7.60;;
2299;SDS011;1158;48.750;9.078;2023-08-12T00:51:54;9.10;;;7.57;;
2299;SDS011;1158;48.750;9.078;2023-08-12T00:54:21;9.60;;;7.97;;
2299;SDS011;1158;48.750;9.078;2023-08-12T00:56:49;11.37;;;7.07;;
2299;SDS011;1158;48.750;9.078;2023-08-12T00:59:16;8.13;;;6.50;;
2299;SDS011;1158;48.750;9.078;2023-08-12T01:01:43;9.77;;;7.67;;
2299;SDS011;1158;48.750;9.078;2023-08-12T01:04:12;15.33;;;6.87;;
2299;SDS011;1158;48.750;9.078;2023-08-12T01:06:39;8.77;;;7.23;;
2299;SDS011;1158;48.750;9.078;2023-08-12T01:09:06;10.57;;;7.83;;
2299;SDS011;1158;48.750;9.078;2023-08-12T01:11:34;10.20;;;7.20;;
2299;SDS011;1158;48.750;9.078;2023-08-12T01:14:06;9.70;;;7.10;;
2299;SDS011;1158;48.750;9.078;2023-08-12T01:16:39;13.27;;;7.60;;
2299;SDS011;1158;48.750;9.078;2023-08-12T01:19:14;8.23;;;6.93;;
2299;SDS011;1158;48.750;9.078;2023-08-12T01:21:49;8.83;;;7.27;;
2299;SDS011;1158;48.750;9.078;2023-08-12T01:24:21;10.33;;;7.50;;
2299;SDS011;1158;48.750;9.078;2023-08-12T01:26:50;8.43;;;6.87;;
2299;SDS011;1158;48.750;9.078;2023-08-12T01:29:17;10.93;;;8.30;;
2299;SDS011;1158;48.750;9.078;2023-08-12T01:31:45;9.83;;;8.10;;
2299;SDS011;1158;48.750;9.078;2023-08-12T01:34:19;9.23;;;7.27;;
2299;SDS011;1158;48.750;9.078;2023-08-12T01:36:50;7.80;;;6.87;;
2299;SDS011;1158;48.750;9.078;2023-08-12T01:39:22;12.30;;;7.70;;
2299;SDS011;1158;48.750;9.078;2023-08-12T01:41:52;9.53;;;6.80;;
2299;SDS011;1158;48.750;9.078;2023-08-12T01:44:21;7.60;;;6.80;;
2299;SDS011;1158;48.750;9.078;2023-08-12T01:46:48;8.87;;;7.00;;
2299;SDS011;1158;48.750;9.078;2023-08-12T01:49:15;10.37;;;8.03;;
2299;SDS011;1158;48.750;9.078;2023-08-12T01:51:42;8.70;;;7.37;;
2299;SDS011;1158;48.750;9.078;2023-08-12T01:54:08;20.73;;;8.23;;
2299;SDS011;1158;48.750;9.078;2023-08-12T01:56:36;9.47;;;7.57;;
2299;SDS011;1158;48.750;9.078;2023-08-12T01:59:03;10.67;;;8.00;;
2299;SDS011;1158;48.750;9.078;2023-08-12T02:01:30;8.47;;;7.10;;
2299;SDS011;1158;48.750;9.078;2023-08-12T02:03:57;10.60;;;7.67;;
2299;SDS011;1158;48.750;9.078;2023-08-12T02:06:23;11.13;;;7.67;;
2299;SDS011;1158;48.750;9.078;2023-08-12T02:08:50;10.47;;;7.57;;
2299;SDS011;1158;48.750;9.078;2023-08-12T02:11:16;9.33;;;7.67;;
2299;SDS011;1158;48.750;9.078;2023-08-12T02:13:45;9.80;;;7.63;;
2299;SDS011;1158;48.750;9.078;2023-08-12T02:16:11;8.83;;;7.50;;
2299;SDS011;1158;48.750;9.078;2023-08-12T02:18:38;11.30;;;7.53;;
2299;SDS011;1158;48.750;9.078;2023-08-12T02:21:04;7.97;;;6.97;;
2299;SDS011;1158;48.750;9.078;2023-08-12T02:23:31;9.10;;;7.67;;
2299;SDS011;1158;48.750;9.078;2023-08-12T02:25:58;10.43;;;7.03;;
2299;SDS011;1158;48.750;9.078;2023-08-12T02:28:25;7.53;;;6.70;;
2299;SDS011;1158;48.750;9.078;2023-08-12T02:30:53;11.03;;;7.53;;
2299;SDS011;1158;48.750;9.078;2023-08-12T02:33:20;9.33;;;7.60;;
2299;SDS011;1158;48.750;9.078;2023-08-12T02:35:46;8.70;;;6.90;;
2299;SDS011;1158;48.750;9.078;2023-08-12T02:38:13;8.10;;;6.97;;
2299;SDS011;1158;48.750;9.078;2023-08-12T02:40:40;10.50;;;7.20;;
2299;SDS011;1158;48.750;9.078;2023-08-12T02:43:06;8.40;;;6.80;;
2299;SDS011;1158;48.750;9.078;2023-08-12T02:45:35;9.80;;;8.17;;
2299;SDS011;1158;48.750;9.078;2023-08-12T02:48:03;7.50;;;6.70;;
2299;SDS011;1158;48.750;9.078;2023-08-12T02:50:31;10.63;;;7.03;;
2299;SDS011;1158;48.750;9.078;2023-08-12T02:52:57;10.00;;;8.20;;
2299;SDS011;1158;48.750;9.078;2023-08-12T02:55:24;8.40;;;7.37;;
2299;SDS011;1158;48.750;9.078;2023-08-12T02:57:51;9.07;;;7.40;;
2299;SDS011;1158;48.750;9.078;2023-08-12T03:00:18;8.60;;;6.77;;
2299;SDS011;1158;48.750;9.078;2023-08-12T03:02:45;9.00;;;7.53;;
2299;SDS011;1158;48.750;9.078;2023-08-12T03:05:13;8.20;;;6.93;;
2299;SDS011;1158;48.750;9.078;2023-08-12T03:07:40;9.97;;;7.83;;
2299;SDS011;1158;48.750;9.078;2023-08-12T03:10:07;9.30;;;7.03;;
2299;SDS011;1158;48.750;9.078;2023-08-12T03:12:34;7.87;;;7.00;;
2299;SDS011;1158;48.750;9.078;2023-08-12T03:15:01;9.17;;;7.57;;
2299;SDS011;1158;48.750;9.078;2023-08-12T03:17:28;8.50;;;7.00;;
2299;SDS011;1158;48.750;9.078;2023-08-12T03:19:56;8.50;;;6.53;;
2299;SDS011;1158;48.750;9.078;2023-08-12T03:22:25;8.80;;;6.80;;
2299;SDS011;1158;48.750;9.078;2023-08-12T03:24:53;8.53;;;6.77;;
2299;SDS011;1158;48.750;9.078;2023-08-12T03:27:19;9.07;;;7.00;;
2299;SDS011;1158;48.750;9.078;2023-08-12T03:29:46;7.53;;;6.73;;
2299;SDS011;1158;48.750;9.078;2023-08-12T03:32:13;9.50;;;7.33;;
2299;SDS011;1158;48.750;9.078;2023-08-12T03:34:40;8.23;;;6.50;;
2299;SDS011;1158;48.750;9.078;2023-08-12T03:37:07;7.53;;;6.30;;
2299;SDS011;1158;48.750;9.078;2023-08-12T03:39:35;6.70;;;6.00;;
2299;SDS011;1158;48.750;9.078;2023-08-12T03:42:01;10.17;;;6.30;;
2299;SDS011;1158;48.750;9.078;2023-08-12T03:44:28;8.50;;;5.97;;
2299;SDS011;1158;48.750;9.078;2023-08-12T03:46:55;8.23;;;6.13;;
2299;SDS011;1158;48.750;9.078;2023-08-12T03:49:22;7.03;;;6.33;;
2299;SDS011;1158;48.750;9.078;2023-08-12T03:51:48;11.17;;;7.20;;
2299;SDS011;1158;48.750;9.078;2023-08-12T03:54:15;8.70;;;6.57;;
2299;SDS011;1158;48.750;9.078;2023-08-12T03:56:43;7.67;;;6.47;;
2299;SDS011;1158;48.750;9.078;2023-08-12T03:59:11;8.57;;;6.50;;
2299;SDS011;1158;48.750;9.078;2023-08-12T04:01:37;8.20;;;6.20;;
2299;SDS011;1158;48.750;9.078;2023-08-12T04:04:04;10.47;;;7.50;;
2299;SDS011;1158;48.750;9.078;2023-08-12T04:06:31;8.20;;;6.63;;
2299;SDS011;1158;48.750;9.078;2023-08-12T04:08:58;9.23;;;6.10;;
2299;SDS011;1158;48.750;9.078;2023-08-12T04:11:24;8.53;;;7.00;;
2299;SDS011;1158;48.750;9.078;2023-08-12T04:13:52;7.27;;;6.13;;
2299;SDS011;1158;48.750;9.078;2023-08-12T04:16:19;7.17;;;6.47;;
2299;SDS011;1158;48.750;9.078;2023-08-12T04:18:46;8.07;;;6.57;;
2299;SDS011;1158;48.750;9.078;2023-08-12T04:21:13;8.10;;;6.23;;
2299;SDS011;1158;48.750;9.078;2023-08-12T04:23:40;8.13;;;6.27;;
2299;SDS011;1158;48.750;9.078;2023-08-12T04:26:07;8.20;;;7.10;;
2299;SDS011;1158;48.750;9.078;2023-08-12T04:28:33;8.20;;;6.63;;
2299;SDS011;1158;48.750;9.078;2023-08-12T04:31:05;13.60;;;7.87;;
2299;SDS011;1158;48.750;9.078;2023-08-12T04:33:32;12.00;;;7.33;;
2299;SDS011;1158;48.750;9.078;2023-08-12T04:35:59;8.90;;;7.53;;
2299;SDS011;1158;48.750;9.078;2023-08-12T04:38:26;10.00;;;8.50;;
2299;SDS011;1158;48.750;9.078;2023-08-12T04:40:53;9.80;;;6.90;;
2299;SDS011;1158;48.750;9.078;2023-08-12T04:43:20;7.97;;;6.53;;
2299;SDS011;1158;48.750;9.078;2023-08-12T04:45:47;9.27;;;6.90;;
2299;SDS011;1158;48.750;9.078;2023-08-12T04:48:15;9.37;;;6.70;;
2299;SDS011;1158;48.750;9.078;2023-08-12T04:50:42;10.70;;;7.10;;
2299;SDS011;1158;48.750;9.078;2023-08-12T04:53:09;8.37;;;6.80;;
2299;SDS011;1158;48.750;9.078;2023-08-12T04:55:35;8.00;;;6.50;;
2299;SDS011;1158;48.750;9.078;2023-08-12T04:58:03;11.40;;;7.63;;
2299;SDS011;1158;48.750;9.078;2023-08-12T05:00:30;9.63;;;7.30;;
2299;SDS011;1158;48.750;9.078;2023-08-12T05:02:57;7.93;;;6.50;;
2299;SDS011;1158;48.750;9.078;2023-08-12T05:05:26;8.00;;;6.70;;
2299;SDS011;1158;48.750;9.078;2023-08-12T05:07:53;10.00;;;7.00;;
2299;SDS011;1158;48.750;9.078;2023-08-12T05:10:19;7.43;;;6.30;;
2299;SDS011;1158;48.750;9.078;2023-08-12T05:12:46;6.50;;;5.23;;
2299;SDS011;1158;48.750;9.078;2023-08-12T05:15:15;8.23;;;5.93;;
2299;SDS011;1158;48.750;9.078;2023-08-12T05:17:42;10.70;;;6.57;;
2299;SDS011;1158;48.750;9.078;2023-08-12T05:20:08;6.67;;;5.93;;
2299;SDS011;1158;48.750;9.078;2023-08-12T05:22:37;8.13;;;6.90;;
2299;SDS011;1158;48.750;9.078;2023-08-12T05:25:04;10.00;;;6.50;;
2299;SDS011;1158;48.750;9.078;2023-08-12T05:27:31;10.30;;;6.83;;
2299;SDS011;1158;48.750;9.078;2023-08-12T05:29:57;9.50;;;6.90;;
2299;SDS011;1158;48.750;9.078;2023-08-12T05:32:24;8.40;;;6.70;;
2299;SDS011;1158;48.750;9.078;2023-08-12T05:34:51;8.10;;;7.00;;
2299;SDS011;1158;48.750;9.078;2023-08-12T05:37:18;8.60;;;6.53;;
2299;SDS011;1158;48.750;9.078;2023-08-12T05:39:46;11.90;;;7.10;;
2299;SDS011;1158;48.750;9.078;2023-08-12T05:42:13;8.33;;;6.50;;
2299;SDS011;1158;48.750;9.078;2023-08-12T05:44:40;10.77;;;5.60;;
2299;SDS011;1158;48.750;9.078;2023-08-12T05:47:07;9.33;;;7.00;;
2299;SDS011;1158;48.750;9.078;2023-08-12T05:49:34;7.77;;;6.37;;
2299;SDS011;1158;48.750;9.078;2023-08-12T05:52:00;8.50;;;7.60;;
2299;SDS011;1158;48.750;9.078;2023-08-12T05:54:27;8.80;;;7.33;;
2299;SDS011;1158;48.750;9.078;2023-08-12T05:56:55;9.60;;;7.50;;
2299;SDS011;1158;48.750;9.078;2023-08-12T05:59:22;11.20;;;7.70;;
2299;SDS011;1158;48.750;9.078;2023-08-12T06:01:48;11.40;;;7.10;;
2299;SDS011;1158;48.750;9.078;2023-08-12T06:04:15;8.83;;;7.33;;
2299;SDS011;1158;48.750;9.078;2023-08-12T06:06:42;7.53;;;6.73;;
2299;SDS011;1158;48.750;9.078;2023-08-12T06:09:08;9.20;;;7.37;;
2299;SDS011;1158;48.750;9.078;2023-08-12T06:11:35;11.67;;;8.30;;
2299;SDS011;1158;48.750;9.078;2023-08-12T06:14:03;8.30;;;7.20;;
2299;SDS011;1158;48.750;9.078;2023-08-12T06:16:30;8.80;;;7.30;;
2299;SDS011;1158;48.750;9.078;2023-08-12T06:18:56;10.37;;;7.40;;
2299;SDS011;1158;48.750;9.078;2023-08-12T06:21:23;9.70;;;6.73;;
2299;SDS011;1158;48.750;9.078;2023-08-12T06:23:50;7.00;;;6.27;;
2299;SDS011;1158;48.750;9.078;2023-08-12T06:26:16;10.40;;;8.10;;
2299;SDS011;1158;48.750;9.078;2023-08-12T06:28:43;7.27;;;6.47;;
2299;SDS011;1158;48.750;9.078;2023-08-12T06:31:11;9.70;;;6.70;;
2299;SDS011;1158;48.750;9.078;2023-08-12T06:33:38;6.87;;;6.03;;
2299;SDS011;1158;48.750;9.078;2023-08-12T06:36:05;7.90;;;6.07;;
2299;SDS011;1158;48.750;9.078;2023-08-12T06:38:32;9.13;;;6.17;;
2299;SDS011;1158;48.750;9.078;2023-08-12T06:40:59;7.70;;;5.70;;
2299;SDS011;1158;48.750;9.078;2023-08-12T06:43:25;6.37;;;5.27;;
2299;SDS011;1158;48.750;9.078;2023-08-12T06:45:52;6.30;;;5.40;;
2299;SDS011;1158;48.750;9.078;2023-08-12T06:48:20;7.77;;;5.10;;
2299;SDS011;1158;48.750;9.078;2023-08-12T06:50:52;4.93;;;4.43;;
2299;SDS011;1158;48.750;9.078;2023-08-12T06:53:19;6.80;;;4.50;;
2299;SDS011;1158;48.750;9.078;2023-08-12T06:55:46;5.33;;;4.83;;
2299;SDS011;1158;48.750;9.078;2023-08-12T06:58:12;5.33;;;4.80;;
2299;SDS011;1158;48.750;9.078;2023-08-12T07:00:39;6.63;;;5.13;;
2299;SDS011;1158;48.750;9.078;2023-08-12T07:03:06;6.57;;;4.87;;
2299;SDS011;1158;48.750;9.078;2023-08-12T07:05:34;5.57;;;4.90;;
2299;SDS011;1158;48.750;9.078;2023-08-12T07:08:01;9.80;;;5.47;;
2299;SDS011;1158;48.750;9.078;2023-08-12T07:10:27;5.97;;;5.37;;
2299;SDS011;1158;48.750;9.078;2023-08-12T07:12:54;7.03;;;5.00;;
2299;SDS011;1158;48.750;9.078;2023-08-12T07:15:21;5.80;;;5.17;;
2299;SDS011;1158;48.750;9.078;2023-08-12T07:17:48;5.60;;;5.00;;
2299;SDS011;1158;48.750;9.078;2023-08-12T07:20:14;5.93;;;5.33;;
2299;SDS011;1158;48.750;9.078;2023-08-12T07:22:42;6.03;;;4.70;;
2299;SDS011;1158;48.750;9.078;2023-08-12T07:25:09;7.37;;;5.23;;
2299;SDS011;1158;48.750;9.078;2023-08-12T07:27:36;8.03;;;4.67;;
2299;SDS011;1158;48.750;9.078;2023-08-12T07:30:03;5.53;;;4.43;;
2299;SDS011;1158;48.750;9.078;2023-08-12T07:32:30;4.93;;;4.43;;
2299;SDS011;1158;48.750;9.078;2023-08-12T07:34:57;5.37;;;4.17;;
2299;SDS011;1158;48.750;9.078;2023-08-12T07:37:24;5.67;;;4.77;;
2299;SDS011;1158;48.750;9.078;2023-08-12T07:39:52;4.47;;;3.90;;
2299;SDS011;1158;48.750;9.078;2023-08-12T07:42:19;4.80;;;4.40;;
2299;SDS011;1158;48.750;9.078;2023-08-12T07:44:46;5.80;;;4.50;;
2299;SDS011;1158;48.750;9.078;2023-08-12T07:47:13;8.10;;;4.30;;
2299;SDS011;1158;48.750;9.078;2023-08-12T07:49:40;4.77;;;4.30;;
2299;SDS011;1158;48.750;9.078;2023-08-12T07:52:07;7.10;;;4.60;;
2299;SDS011;1158;48.750;9.078;2023-08-12T07:54:34;4.93;;;4.33;;
2299;SDS011;1158;48.750;9.078;2023-08-12T07:57:03;6.53;;;3.90;;
2299;SDS011;1158;48.750;9.078;2023-08-12T07:59:29;4.90;;;4.27;;
2299;SDS011;1158;48.750;9.078;2023-08-12T08:01:56;4.30;;;3.90;;
2299;SDS011;1158;48.750;9.078;2023-08-12T08:04:23;4.90;;;4.40;;
2299;SDS011;1158;48.750;9.078;2023-08-12T08:06:49;4.23;;;3.83;;
2299;SDS011;1158;48.750;9.078;2023-08-12T08:09:16;5.37;;;4.87;;
2299;SDS011;1158;48.750;9.078;2023-08-12T08:11:43;6.57;;;4.17;;
2299;SDS011;1158;48.750;9.078;2023-08-12T08:14:11;4.60;;;3.70;;
2299;SDS011;1158;48.750;9.078;2023-08-12T08:16:37;5.80;;;3.97;;
2299;SDS011;1158;48.750;9.078;2023-08-12T08:19:05;6.23;;;3.87;;
2299;SDS011;1158;48.750;9.078;2023-08-12T08:21:31;5.33;;;3.93;;
2299;SDS011;1158;48.750;9.078;2023-08-12T08:23:58;4.23;;;3.80;;
2299;SDS011;1158;48.750;9.078;2023-08-12T08:26:25;5.53;;;3.60;;
2299;SDS011;1158;48.750;9.078;2023-08-12T08:28:51;4.70;;;3.80;;
2299;SDS011;1158;48.750;9.078;2023-08-12T08:31:20;4.80;;;4.03;;
2299;SDS011;1158;48.750;9.078;2023-08-12T08:33:47;4.13;;;3.70;;
2299;SDS011;1158;48.750;9.078;2023-08-12T08:36:13;4.13;;;3.73;;
2299;SDS011;1158;48.750;9.078;2023-08-12T08:38:41;5.93;;;3.57;;
2299;SDS011;1158;48.750;9.078;2023-08-12T08:41:08;5.53;;;3.50;;
2299;SDS011;1158;48.750;9.078;2023-08-12T08:43:36;4.73;;;3.57;;
2299;SDS011;1158;48.750;9.078;2023-08-12T08:46:05;5.83;;;3.83;;
2299;SDS011;1158;48.750;9.078;2023-08-12T08:48:34;4.07;;;3.30;;
2299;SDS011;1158;48.750;9.078;2023-08-12T08:51:01;4.67;;;3.63;;
2299;SDS011;1158;48.750;9.078;2023-08-12T08:53:29;4.13;;;3.30;;
2299;SDS011;1158;48.750;9.078;2023-08-12T08:55:56;5.40;;;3.93;;
2299;SDS011;1158;48.750;9.078;2023-08-12T08:58:24;5.30;;;3.30;;
2299;SDS011;1158;48.750;9.078;2023-08-12T09:00:51;4.43;;;3.20;;
2299;SDS011;1158;48.750;9.078;2023-08-12T09:03:17;3.30;;;2.97;;
2299;SDS011;1158;48.750;9.078;2023-08-12T09:05:47;5.00;;;3.23;;
2299;SDS011;1158;48.750;9.078;2023-08-12T09:08:15;3.40;;;2.80;;
2299;SDS011;1158;48.750;9.078;2023-08-12T09:10:42;7.73;;;2.60;;
2299;SDS011;1158;48.750;9.078;2023-08-12T09:13:09;3.60;;;2.63;;
2299;SDS011;1158;48.750;9.078;2023-08-12T09:15:35;4.60;;;2.90;;
2299;SDS011;1158;48.750;9.078;2023-08-12T09:18:04;3.27;;;2.47;;
2299;SDS011;1158;48.750;9.078;2023-08-12T09:20:31;4.70;;;3.17;;
2299;SDS011;1158;48.750;9.078;2023-08-12T09:23:00;3.30;;;2.70;;
2299;SDS011;1158;48.750;9.078;2023-08-12T09:25:27;3.80;;;3.07;;
2299;SDS011;1158;48.750;9.078;2023-08-12T09:27:54;3.10;;;2.77;;
2299;SDS011;1158;48.750;9.078;2023-08-12T09:30:24;3.63;;;2.60;;
2299;SDS011;1158;48.750;9.078;2023-08-12T09:33:03;6.03;;;3.33;;
2299;SDS011;1158;48.750;9.078;2023-08-12T09:35:32;4.87;;;2.70;;
2299;SDS011;1158;48.750;9.078;2023-08-12T09:38:02;5.20;;;3.00;;
2299;SDS011;1158;48.750;9.078;2023-08-12T09:40:30;6.90;;;3.00;;
2299;SDS011;1158;48.750;9.078;2023-08-12T09:42:57;4.63;;;3.20;;
2299;SDS011;1158;48.750;9.078;2023-08-12T09:45:24;5.47;;;3.53;;
2299;SDS011;1158;48.750;9.078;2023-08-12T09:47:52;4.50;;;3.23;;
2299;SDS011;1158;48.750;9.078;2023-08-12T09:50:20;5.30;;;3.30;;
2299;SDS011;1158;48.750;9.078;2023-08-12T09:52:48;5.90;;;3.57;;
2299;SDS011;1158;48.750;9.078;2023-08-12T09:55:17;9.10;;;3.40;;
2299;SDS011;1158;48.750;9.078;2023-08-12T09:57:47;3.80;;;3.17;;
2299;SDS011;1158;48.750;9.078;2023-08-12T10:00:15;5.70;;;3.70;;
2299;SDS011;1158;48.750;9.078;2023-08-12T10:02:43;5.07;;;3.73;;
2299;SDS011;1158;48.750;9.078;2023-08-12T10:05:11;4.73;;;3.63;;
2299;SDS011;1158;48.750;9.078;2023-08-12T10:07:38;6.53;;;3.90;;
2299;SDS011;1158;48.750;9.078;2023-08-12T10:10:06;6.90;;;3.90;;
2299;SDS011;1158;48.750;9.078;2023-08-12T10:12:35;7.40;;;3.57;;
2299;SDS011;1158;48.750;9.078;2023-08-12T10:15:03;5.83;;;4.30;;
2299;SDS011;1158;48.750;9.078;2023-08-12T10:17:31;5.03;;;3.60;;
2299;SDS011;1158;48.750;9.078;2023-08-12T10:19:58;6.70;;;4.20;;
2299;SDS011;1158;48.750;9.078;2023-08-12T10:22:29;6.70;;;4.07;;
2299;SDS011;1158;48.750;9.078;2023-08-12T10:24:56;4.37;;;3.40;;
2299;SDS011;1158;48.750;9.078;2023-08-12T10:27:24;5.33;;;4.33;;
2299;SDS011;1158;48.750;9.078;2023-08-12T10:29:54;4.40;;;3.03;;
2299;SDS011;1158;48.750;9.078;2023-08-12T10:32:22;4.97;;;3.87;;
2299;SDS011;1158;48.750;9.078;2023-08-12T10:34:53;4.83;;;3.47;;
2299;SDS011;1158;48.750;9.078;2023-08-12T10:37:21;3.47;;;3.17;;
2299;SDS011;1158;48.750;9.078;2023-08-12T10:39:51;4.77;;;3.50;;
2299;SDS011;1158;48.750;9.078;2023-08-12T10:45:03;5.37;;;3.43;;
2299;SDS011;1158;48.750;9.078;2023-08-12T10:47:31;4.93;;;3.67;;
2299;SDS011;1158;48.750;9.078;2023-08-12T10:49:59;5.43;;;3.77;;
2299;SDS011;1158;48.750;9.078;2023-08-12T10:52:28;5.07;;;3.50;;
2299;SDS011;1158;48.750;9.078;2023-08-12T10:54:56;4.20;;;3.60;;
2299;SDS011;1158;48.750;9.078;2023-08-12T10:57:42;7.23;;;3.50;;
2299;SDS011;1158;48.750;9.078;2023-08-12T11:00:11;9.67;;;8.67;;
2299;SDS011;1158;48.750;9.078;2023-08-12T11:02:40;5.23;;;3.00;;
2299;SDS011;1158;48.750;9.078;2023-08-12T11:05:11;4.10;;;3.30;;
2299;SDS011;1158;48.750;9.078;2023-08-12T11:07:38;5.23;;;3.77;;
2299;SDS011;1158;48.750;9.078;2023-08-12T11:10:11;3.73;;;2.97;;
2299;SDS011;1158;48.750;9.078;2023-08-12T11:12:39;4.40;;;3.40;;
2299;SDS011;1158;48.750;9.078;2023-08-12T11:15:06;4.33;;;3.10;;
2299;SDS011;1158;48.750;9.078;2023-08-12T11:17:35;4.03;;;3.20;;
2299;SDS011;1158;48.750;9.078;2023-08-12T11:20:04;4.70;;;3.40;;
2299;SDS011;1158;48.750;9.078;2023-08-12T11:22:32;4.50;;;3.90;;
2299;SDS011;1158;48.750;9.078;2023-08-12T11:24:59;4.80;;;3.90;;
2299;SDS011;1158;48.750;9.078;2023-08-12T11:27:27;4.80;;;3.60;;
2299;SDS011;1158;48.750;9.078;2023-08-12T11:29:54;6.03;;;3.80;;
2299;SDS011;1158;48.750;9.078;2023-08-12T11:32:21;5.93;;;3.67;;
2299;SDS011;1158;48.750;9.078;2023-08-12T11:34:50;5.13;;;3.73;;
2299;SDS011;1158;48.750;9.078;2023-08-12T11:37:17;4.50;;;3.70;;
2299;SDS011;1158;48.750;9.078;2023-08-12T11:39:44;5.20;;;3.63;;
2299;SDS011;1158;48.750;9.078;2023-08-12T11:42:16;5.67;;;4.33;;
2299;SDS011;1158;48.750;9.078;2023-08-12T11:44:43;4.70;;;3.40;;
2299;SDS011;1158;48.750;9.078;2023-08-12T11:47:10;7.77;;;4.27;;
2299;SDS011;1158;48.750;9.078;2023-08-12T11:49:37;5.10;;;3.63;;
2299;SDS011;1158;48.750;9.078;2023-08-12T11:52:08;4.93;;;4.03;;
2299;SDS011;1158;48.750;9.078;2023-08-12T11:54:35;5.60;;;3.77;;
2299;SDS011;1158;48.750;9.078;2023-08-12T11:57:03;5.90;;;4.40;;
2299;SDS011;1158;48.750;9.078;2023-08-12T11:59:30;5.17;;;3.80;;
2299;SDS011;1158;48.750;9.078;2023-08-12T12:01:57;5.90;;;3.07;;
2299;SDS011;1158;48.750;9.078;2023-08-12T12:04:24;4.17;;;3.33;;
2299;SDS011;1158;48.750;9.078;2023-08-12T12:06:51;4.07;;;3.67;;
2299;SDS011;1158;48.750;9.078;2023-08-12T12:09:20;5.10;;;4.43;;
2299;SDS011;1158;48.750;9.078;2023-08-12T12:11:47;6.30;;;5.17;;
2299;SDS011;1158;48.750;9.078;2023-08-12T12:14:20;5.57;;;4.40;;
2299;SDS011;1158;48.750;9.078;2023-08-12T12:16:48;5.93;;;4.87;;
2299;SDS011;1158;48.750;9.078;2023-08-12T12:19:16;8.30;;;5.77;;
2299;SDS011;1158;48.750;9.078;2023-08-12T12:21:44;7.37;;;5.90;;
2299;SDS011;1158;48.750;9.078;2023-08-12T12:24:12;11.33;;;6.60;;
2299;SDS011;1158;48.750;9.078;2023-08-12T12:26:40;10.20;;;7.20;;
2299;SDS011;1158;48.750;9.078;2023-08-12T12:29:07;10.83;;;6.77;;
2299;SDS011;1158;48.750;9.078;2023-08-12T12:31:36;7.60;;;6.80;;
2299;SDS011;1158;48.750;9.078;2023-08-12T12:34:03;8.87;;;7.23;;
2299;SDS011;1158;48.750;9.078;2023-08-12T12:36:31;9.13;;;6.77;;
2299;SDS011;1158;48.750;9.078;2023-08-12T12:38:58;10.37;;;7.57;;
2299;SDS011;1158;48.750;9.078;2023-08-12T12:41:25;10.00;;;7.17;;
2299;SDS011;1158;48.750;9.078;2023-08-12T12:43:57;11.23;;;7.20;;
2299;SDS011;1158;48.750;9.078;2023-08-12T12:46:24;10.93;;;8.20;;
2299;SDS011;1158;48.750;9.078;2023-08-12T12:48:51;12.57;;;8.10;;
2299;SDS011;1158;48.750;9.078;2023-08-12T12:51:18;12.47;;;8.20;;
2299;SDS011;1158;48.750;9.078;2023-08-12T12:53:45;9.63;;;8.50;;
2299;SDS011;1158;48.750;9.078;2023-08-12T12:56:12;19.40;;;10.07;;
2299;SDS011;1158;48.750;9.078;2023-08-12T12:58:42;12.60;;;8.27;;
2299;SDS011;1158;48.750;9.078;2023-08-12T13:01:10;10.70;;;8.70;;
2299;SDS011;1158;48.750;9.078;2023-08-12T13:03:39;10.23;;;8.40;;
2299;SDS011;1158;48.750;9.078;2023-08-12T13:06:08;12.63;;;7.80;;
2299;SDS011;1158;48.750;9.078;2023-08-12T13:08:35;12.37;;;8.70;;
2299;SDS011;1158;48.750;9.078;2023-08-12T13:11:02;11.03;;;9.20;;
2299;SDS011;1158;48.750;9.078;2023-08-12T13:13:29;10.93;;;8.47;;
2299;SDS011;1158;48.750;9.078;2023-08-12T13:15:56;10.77;;;9.67;;
2299;SDS011;1158;48.750;9.078;2023-08-12T13:18:24;13.03;;;8.50;;
2299;SDS011;1158;48.750;9.078;2023-08-12T13:20:51;9.67;;;8.17;;
2299;SDS011;1158;48.750;9.078;2023-08-12T13:23:18;12.07;;;8.23;;
2299;SDS011;1158;48.750;9.078;2023-08-12T13:25:44;10.13;;;8.27;;
2299;SDS011;1158;48.750;9.078;2023-08-12T13:28:11;12.93;;;8.37;;
2299;SDS011;1158;48.750;9.078;2023-08-12T13:30:38;10.23;;;8.37;;
2299;SDS011;1158;48.750;9.078;2023-08-12T13:33:04;10.60;;;8.93;;
2299;SDS011;1158;48.750;9.078;2023-08-12T13:35:32;12.90;;;8.50;;
2299;SDS011;1158;48.750;9.078;2023-08-12T13:37:59;13.10;;;9.00;;
2299;SDS011;1158;48.750;9.078;2023-08-12T13:40:26;12.70;;;8.27;;
2299;SDS011;1158;48.750;9.078;2023-08-12T13:42:53;12.63;;;8.40;;
2299;SDS011;1158;48.750;9.078;2023-08-12T13:45:19;9.30;;;6.70;;
2299;SDS011;1158;48.750;9.078;2023-08-12T13:47:46;11.00;;;6.47;;
2299;SDS011;1158;48.750;9.078;2023-08-12T13:50:13;8.07;;;5.00;;
2299;SDS011;1158;48.750;9.078;2023-08-12T13:52:41;9.43;;;4.10;;
2299;SDS011;1158;48.750;9.078;2023-08-12T13:55:08;8.97;;;4.50;;
2299;SDS011;1158;48.750;9.078;2023-08-12T13:57:35;8.30;;;3.90;;
2299;SDS011;1158;48.750;9.078;2023-08-12T14:00:02;6.53;;;4.03;;
2299;SDS011;1158;48.750;9.078;2023-08-12T14:02:34;6.10;;;3.50;;
2299;SDS011;1158;48.750;9.078;2023-08-12T14:05:00;5.97;;;3.87;;
2299;SDS011;1158;48.750;9.078;2023-08-12T14:07:27;6.73;;;4.33;;
2299;SDS011;1158;48.750;9.078;2023-08-12T14:09:55;6.30;;;3.40;;
2299;SDS011;1158;48.750;9.078;2023-08-12T14:12:22;7.77;;;3.87;;
2299;SDS011;1158;48.750;9.078;2023-08-12T14:14:48;5.63;;;3.30;;
2299;SDS011;1158;48.750;9.078;2023-08-12T14:17:15;5.07;;;3.17;;
2299;SDS011;1158;48.750;9.078;2023-08-12T14:19:43;4.37;;;3.00;;
2299;SDS011;1158;48.750;9.078;2023-08-12T14:22:10;4.80;;;2.33;;
2299;SDS011;1158;48.750;9.078;2023-08-12T14:24:37;9.50;;;3.47;;
2299;SDS011;1158;48.750;9.078;2023-08-12T14:27:06;4.47;;;3.00;;
2299;SDS011;1158;48.750;9.078;2023-08-12T14:29:33;5.63;;;3.30;;
2299;SDS011;1158;48.750;9.078;2023-08-12T14:32:00;8.43;;;4.60;;
2299;SDS011;1158;48.750;9.078;2023-08-12T14:34:27;4.73;;;2.60;;
2299;SDS011;1158;48.750;9.078;2023-08-12T14:36:54;4.20;;;2.70;;
2299;SDS011;1158;48.750;9.078;2023-08-12T14:39:21;4.53;;;3.20;;
2299;SDS011;1158;48.750;9.078;2023-08-12T14:41:48;5.07;;;3.20;;
2299;SDS011;1158;48.750;9.078;2023-08-12T14:44:17;4.17;;;2.60;;
2299;SDS011;1158;48.750;9.078;2023-08-12T14:46:44;3.63;;;2.63;;
2299;SDS011;1158;48.750;9.078;2023-08-12T14:49:11;4.83;;;3.37;;
2299;SDS011;1158;48.750;9.078;2023-08-12T14:51:38;4.83;;;2.90;;
2299;SDS011;1158;48.750;9.078;2023-08-12T14:54:05;3.00;;;2.30;;
2299;SDS011;1158;48.750;9.078;2023-08-12T14:56:32;3.53;;;2.67;;
2299;SDS011;1158;48.750;9.078;2023-08-12T14:59:01;7.00;;;2.70;;
2299;SDS011;1158;48.750;9.078;2023-08-12T15:01:32;3.17;;;2.57;;
2299;SDS011;1158;48.750;9.078;2023-08-12T15:03:59;5.27;;;2.90;;
2299;SDS011;1158;48.750;9.078;2023-08-12T15:06:26;4.30;;;2.97;;
2299;SDS011;1158;48.750;9.078;2023-08-12T15:08:55;4.60;;;2.47;;
2299;SDS011;1158;48.750;9.078;2023-08-12T15:11:22;6.53;;;2.50;;
2299;SDS011;1158;48.750;9.078;2023-08-12T15:13:50;5.13;;;2.30;;
2299;SDS011;1158;48.750;9.078;2023-08-12T15:16:17;3.37;;;2.50;;